createdAt,value
2018-08-30T00:00:20.578Z,3.70
2018-08-30T00:02:49.845Z,3.67
2018-08-30T00:05:19.085Z,3.73
2018-08-30T00:07:48.082Z,3.57
2018-08-30T00:10:17.053Z,3.40
2018-08-30T00:12:46.216Z,3.37
2018-08-30T00:15:15.206Z,3.43
2018-08-30T00:17:44.164Z,3.30
2018-08-30T00:20:13.269Z,3.30
2018-08-30T00:22:42.230Z,3.20
2018-08-30T00:25:11.222Z,3.43
2018-08-30T00:27:40.202Z,3.20
2018-08-30T00:30:09.229Z,3.60
2018-08-30T00:32:38.209Z,3.70
2018-08-30T00:35:07.281Z,3.57
2018-08-30T00:37:36.285Z,3.67
2018-08-30T00:40:05.277Z,4.13
2018-08-30T00:42:34.339Z,4.50
2018-08-30T00:45:03.352Z,3.53
2018-08-30T00:47:32.447Z,3.80
2018-08-30T00:50:01.483Z,3.43
2018-08-30T00:52:30.512Z,3.57
2018-08-30T00:54:59.547Z,4.03
2018-08-30T00:57:28.563Z,4.17
2018-08-30T00:59:57.919Z,4.00
2018-08-30T01:02:26.935Z,4.87
2018-08-30T01:04:56.020Z,4.73
2018-08-30T01:07:25.049Z,4.60
2018-08-30T01:09:54.515Z,4.67
2018-08-30T01:12:23.567Z,4.23
2018-08-30T01:14:52.563Z,3.90
2018-08-30T01:17:21.562Z,3.97
2018-08-30T01:19:50.592Z,4.23
2018-08-30T01:22:19.595Z,3.87
2018-08-30T01:24:48.877Z,4.20
2018-08-30T01:27:17.897Z,4.27
2018-08-30T01:29:46.911Z,4.90
2018-08-30T01:32:15.944Z,5.20
2018-08-30T01:34:44.943Z,6.33
2018-08-30T01:37:13.979Z,6.40
2018-08-30T01:39:42.999Z,7.33
2018-08-30T01:42:12.040Z,7.97
2018-08-30T01:44:41.042Z,7.50
2018-08-30T01:47:10.340Z,8.30
2018-08-30T01:49:39.506Z,7.93
2018-08-30T01:52:08.615Z,9.70
2018-08-30T01:54:37.732Z,9.30
2018-08-30T01:57:06.755Z,10.00
2018-08-30T01:59:35.784Z,9.33
2018-08-30T02:02:04.807Z,11.43
2018-08-30T02:04:33.969Z,11.53
2018-08-30T02:07:03.260Z,13.80
2018-08-30T02:09:32.293Z,13.43
2018-08-30T02:12:01.326Z,13.97
2018-08-30T02:14:30.364Z,16.03
2018-08-30T02:16:59.438Z,14.67
2018-08-30T02:19:28.459Z,15.70
2018-08-30T02:21:57.491Z,15.47
2018-08-30T02:24:26.527Z,15.30
2018-08-30T02:26:55.552Z,15.97
2018-08-30T02:29:24.619Z,15.17
2018-08-30T02:31:53.718Z,15.70
2018-08-30T02:34:22.706Z,15.47
2018-08-30T02:36:51.738Z,16.20
2018-08-30T02:39:20.854Z,15.33
2018-08-30T02:41:50.066Z,16.07
2018-08-30T02:44:19.139Z,15.77
2018-08-30T02:46:48.236Z,16.07
2018-08-30T02:49:17.311Z,15.53
2018-08-30T02:51:46.324Z,15.93
2018-08-30T02:54:15.388Z,16.07
2018-08-30T02:56:44.463Z,16.73
2018-08-30T02:59:13.491Z,15.77
2018-08-30T03:01:42.547Z,16.27
2018-08-30T03:04:11.591Z,15.80
2018-08-30T03:06:40.755Z,16.70
2018-08-30T03:09:10.199Z,16.97
2018-08-30T03:11:39.266Z,16.67
2018-08-30T03:14:08.315Z,16.17
2018-08-30T03:16:37.344Z,16.07
2018-08-30T03:19:06.499Z,16.07
2018-08-30T03:21:35.549Z,15.30
2018-08-30T03:24:04.609Z,15.77
2018-08-30T03:26:33.655Z,15.20
2018-08-30T03:29:02.675Z,15.40
2018-08-30T03:31:31.819Z,15.90
2018-08-30T03:34:00.880Z,14.53
2018-08-30T03:36:29.884Z,15.03
2018-08-30T03:38:58.926Z,13.70
2018-08-30T03:41:27.963Z,13.37
2018-08-30T03:43:57.027Z,13.23
2018-08-30T03:46:26.068Z,13.70
2018-08-30T03:48:55.250Z,12.60
2018-08-30T03:51:24.298Z,12.70
2018-08-30T03:53:53.319Z,12.10
2018-08-30T03:56:22.347Z,11.53
2018-08-30T03:58:51.413Z,10.67
2018-08-30T04:01:20.466Z,11.07
2018-08-30T04:03:49.508Z,10.27
2018-08-30T04:06:18.530Z,10.83
2018-08-30T04:08:47.599Z,10.60
2018-08-30T04:11:16.627Z,10.50
2018-08-30T04:13:45.688Z,10.93
2018-08-30T04:16:14.724Z,10.40
2018-08-30T04:18:43.774Z,10.70
2018-08-30T04:21:12.842Z,11.60
2018-08-30T04:23:41.887Z,11.60
2018-08-30T04:26:10.926Z,10.40
2018-08-30T04:28:39.949Z,11.27
2018-08-30T04:31:09.040Z,11.40
2018-08-30T04:33:38.007Z,11.67
2018-08-30T04:36:07.060Z,11.10
2018-08-30T04:38:36.075Z,10.30
2018-08-30T04:41:05.280Z,11.57
2018-08-30T04:43:34.432Z,9.93
2018-08-30T04:46:04.332Z,10.10
2018-08-30T04:48:33.379Z,9.60
2018-08-30T04:51:02.395Z,9.60
2018-08-30T04:53:31.440Z,9.37
2018-08-30T04:56:00.968Z,9.40
2018-08-30T04:58:30.147Z,8.50
2018-08-30T05:00:59.740Z,9.27
2018-08-30T05:03:28.987Z,7.97
2018-08-30T05:05:58.099Z,7.83
2018-08-30T05:08:27.434Z,7.70
2018-08-30T05:10:56.864Z,7.40
2018-08-30T05:13:25.911Z,7.60
2018-08-30T05:15:54.943Z,16.53
2018-08-30T05:18:23.954Z,10.50
2018-08-30T05:20:53.006Z,7.57
2018-08-30T05:23:22.009Z,7.40
2018-08-30T05:25:51.043Z,7.50
2018-08-30T05:28:20.076Z,7.20
2018-08-30T05:30:49.134Z,7.10
2018-08-30T05:33:18.155Z,7.20
2018-08-30T05:35:47.301Z,7.23
2018-08-30T05:38:16.304Z,7.13
2018-08-30T05:40:45.353Z,7.40
2018-08-30T05:43:14.415Z,7.00
2018-08-30T05:45:43.435Z,6.80
2018-08-30T05:48:12.447Z,6.80
2018-08-30T05:50:41.496Z,6.73
2018-08-30T05:53:10.523Z,7.13
2018-08-30T05:55:39.559Z,6.90
2018-08-30T05:58:08.595Z,7.37
2018-08-30T06:00:37.646Z,6.60
2018-08-30T06:03:06.853Z,6.90
2018-08-30T06:05:35.887Z,7.47
2018-08-30T06:08:05.026Z,7.50
2018-08-30T06:10:34.027Z,7.93
2018-08-30T06:13:03.091Z,7.73
2018-08-30T06:15:32.100Z,7.60
2018-08-30T06:18:01.116Z,8.00
2018-08-30T06:20:30.162Z,7.40
2018-08-30T06:22:59.490Z,7.53
2018-08-30T06:25:28.563Z,8.13
2018-08-30T06:27:57.594Z,7.80
2018-08-30T06:30:26.615Z,8.50
2018-08-30T06:32:55.714Z,8.90
2018-08-30T06:35:24.687Z,8.73
2018-08-30T06:37:53.740Z,9.47
2018-08-30T06:40:22.787Z,9.80
2018-08-30T06:42:51.866Z,10.20
2018-08-30T06:45:21.146Z,10.60
2018-08-30T06:47:50.160Z,10.60
2018-08-30T06:50:19.360Z,10.30
2018-08-30T06:52:48.398Z,10.00
2018-08-30T06:55:17.730Z,9.60
2018-08-30T06:57:46.774Z,10.17
2018-08-30T07:00:15.814Z,10.57
2018-08-30T07:02:44.887Z,10.13
2018-08-30T07:05:13.920Z,10.40
2018-08-30T07:07:43.051Z,9.90
2018-08-30T07:10:12.072Z,10.20
2018-08-30T07:12:41.091Z,9.77
2018-08-30T07:15:10.174Z,9.97
2018-08-30T07:17:39.203Z,9.50
2018-08-30T07:20:08.254Z,8.90
2018-08-30T07:22:37.268Z,9.90
2018-08-30T07:25:06.572Z,9.97
2018-08-30T07:27:35.661Z,9.70
2018-08-30T07:30:06.163Z,9.87
2018-08-30T07:32:35.215Z,11.07
2018-08-30T07:35:04.276Z,10.40
2018-08-30T07:37:33.303Z,9.77
2018-08-30T07:40:02.339Z,10.73
2018-08-30T07:42:31.406Z,11.07
2018-08-30T07:45:00.607Z,11.07
2018-08-30T07:47:29.627Z,11.37
2018-08-30T07:49:58.692Z,10.87
2018-08-30T07:52:27.716Z,11.53
2018-08-30T07:54:56.747Z,12.53
2018-08-30T07:57:25.838Z,11.07
2018-08-30T07:59:54.910Z,12.27
2018-08-30T08:02:23.903Z,13.30
2018-08-30T08:04:52.919Z,11.33
2018-08-30T08:07:22.074Z,12.07
2018-08-30T08:09:51.011Z,12.37
2018-08-30T08:12:20.059Z,11.67
2018-08-30T08:14:49.134Z,11.53
2018-08-30T08:17:18.166Z,12.43
2018-08-30T08:19:47.181Z,12.23
2018-08-30T08:22:16.252Z,12.20
2018-08-30T08:24:45.288Z,12.10
2018-08-30T08:27:14.377Z,12.50
2018-08-30T08:29:43.407Z,12.47
2018-08-30T08:32:12.464Z,12.00
2018-08-30T08:34:41.504Z,11.80
2018-08-30T08:37:10.667Z,12.23
2018-08-30T08:39:39.704Z,12.23
2018-08-30T08:42:08.758Z,12.23
2018-08-30T08:44:37.800Z,12.50
2018-08-30T08:47:06.842Z,12.10
2018-08-30T08:49:36.571Z,12.97
2018-08-30T08:52:05.601Z,12.17
2018-08-30T08:54:34.799Z,13.17
2018-08-30T08:57:04.102Z,12.80
2018-08-30T08:59:33.127Z,13.07
2018-08-30T09:02:02.187Z,12.93
2018-08-30T09:04:31.208Z,12.90
2018-08-30T09:07:00.570Z,12.17
2018-08-30T09:09:29.546Z,12.53
2018-08-30T09:11:58.579Z,13.83
2018-08-30T09:14:27.650Z,12.90
2018-08-30T09:16:56.656Z,12.97
2018-08-30T09:19:25.734Z,12.73
2018-08-30T09:21:54.776Z,12.17
2018-08-30T09:24:23.819Z,13.20
2018-08-30T09:26:52.984Z,13.10
2018-08-30T09:29:21.903Z,13.27
2018-08-30T09:31:50.967Z,13.00
2018-08-30T09:34:20.012Z,13.70
2018-08-30T09:36:49.059Z,13.63
2018-08-30T09:39:18.111Z,14.43
2018-08-30T09:41:47.124Z,14.07
2018-08-30T09:44:16.213Z,13.30
2018-08-30T09:46:45.247Z,13.70
2018-08-30T09:49:14.320Z,13.53
2018-08-30T09:51:43.312Z,13.20
2018-08-30T09:54:12.343Z,13.33
2018-08-30T09:56:41.423Z,13.60
2018-08-30T09:59:10.459Z,13.67
2018-08-30T10:01:44.916Z,13.17
2018-08-30T10:04:13.975Z,13.67
2018-08-30T10:06:42.995Z,12.70
2018-08-30T10:09:12.063Z,13.27
2018-08-30T10:11:41.118Z,13.87
2018-08-30T10:14:10.467Z,13.30
2018-08-30T10:16:39.522Z,13.77
2018-08-30T10:19:08.538Z,12.60
2018-08-30T10:21:37.709Z,12.87
2018-08-30T10:24:06.631Z,12.88
2018-08-30T10:26:35.710Z,13.50
2018-08-30T10:29:04.810Z,12.50
2018-08-30T10:31:33.977Z,13.55
2018-08-30T10:34:03.019Z,13.62
2018-08-30T10:36:32.410Z,12.90
2018-08-30T10:39:01.637Z,14.10
2018-08-30T10:41:30.740Z,13.90
2018-08-30T10:43:59.912Z,14.95
2018-08-30T10:46:28.981Z,13.88
2018-08-30T10:48:58.234Z,14.68
2018-08-30T10:51:27.277Z,13.03
2018-08-30T10:53:56.323Z,13.70
2018-08-30T10:56:25.476Z,13.35
2018-08-30T10:58:54.363Z,13.58
2018-08-30T11:01:23.415Z,15.10
2018-08-30T11:03:52.513Z,13.80
2018-08-30T11:06:21.539Z,13.48
2018-08-30T11:08:50.792Z,14.93
2018-08-30T11:11:19.902Z,14.87
2018-08-30T11:13:49.210Z,13.95
2018-08-30T11:16:24.778Z,15.03
2018-08-30T11:18:54.071Z,14.03
2018-08-30T11:21:23.083Z,18.45
2018-08-30T11:23:52.101Z,17.15
2018-08-30T11:26:21.143Z,17.15
2018-08-30T11:28:50.156Z,16.60
2018-08-30T11:31:19.212Z,14.73
2018-08-30T11:33:48.243Z,14.33
2018-08-30T11:36:17.298Z,14.85
2018-08-30T11:38:46.332Z,13.85
2018-08-30T11:41:15.589Z,13.13
2018-08-30T11:43:44.612Z,13.15
2018-08-30T11:46:13.623Z,13.55
2018-08-30T11:48:42.671Z,13.72
2018-08-30T11:51:11.725Z,12.43
2018-08-30T11:53:40.795Z,12.98
2018-08-30T11:56:10.156Z,13.03
2018-08-30T11:58:39.166Z,13.55
2018-08-30T12:01:08.231Z,13.00
2018-08-30T12:03:37.243Z,13.88
2018-08-30T12:06:06.292Z,13.78
2018-08-30T12:08:35.311Z,13.75
2018-08-30T12:11:04.507Z,12.82
2018-08-30T12:13:33.367Z,14.30
2018-08-30T12:16:02.408Z,13.15
2018-08-30T12:18:31.420Z,13.43
2018-08-30T12:21:00.507Z,13.70
2018-08-30T12:23:29.626Z,13.85
2018-08-30T12:25:58.827Z,14.53
2018-08-30T12:28:28.242Z,14.38
2018-08-30T12:30:57.630Z,13.75
2018-08-30T12:33:26.663Z,13.72
2018-08-30T12:35:55.867Z,13.80
2018-08-30T12:38:24.693Z,14.45
2018-08-30T12:40:53.723Z,13.80
2018-08-30T12:43:22.880Z,13.68
2018-08-30T12:45:51.866Z,13.78
2018-08-30T12:48:20.885Z,13.95
2018-08-30T12:50:50.003Z,14.18
2018-08-30T12:53:19.055Z,13.93
2018-08-30T12:55:48.120Z,13.30
2018-08-30T12:58:17.356Z,13.70
2018-08-30T13:00:46.288Z,13.18
2018-08-30T13:03:15.400Z,13.93
2018-08-30T13:05:44.971Z,13.68
2018-08-30T13:08:13.717Z,13.58
2018-08-30T13:10:42.989Z,13.90
2018-08-30T13:13:12.302Z,14.90
2018-08-30T13:15:41.265Z,13.72
2018-08-30T13:18:10.168Z,13.32
2018-08-30T13:20:39.432Z,13.00
2018-08-30T13:23:08.334Z,14.40
2018-08-30T13:25:37.563Z,13.15
2018-08-30T13:28:06.487Z,13.93
2018-08-30T13:30:35.386Z,14.55
2018-08-30T13:33:04.653Z,14.95
2018-08-30T13:35:33.930Z,14.85
2018-08-30T13:38:03.367Z,14.30
2018-08-30T13:40:32.172Z,13.90
2018-08-30T13:43:01.425Z,13.22
2018-08-30T13:45:30.347Z,13.53
2018-08-30T13:47:59.700Z,12.78
2018-08-30T13:50:31.549Z,13.15
2018-08-30T13:53:00.598Z,13.00
2018-08-30T13:55:29.630Z,12.95
2018-08-30T13:57:58.729Z,12.40
2018-08-30T14:00:27.987Z,12.93
2018-08-30T14:02:56.687Z,13.32
2018-08-30T14:05:25.756Z,11.65
2018-08-30T14:07:54.780Z,12.20
2018-08-30T14:10:24.148Z,13.25
2018-08-30T14:12:52.891Z,12.80
2018-08-30T14:15:22.254Z,12.43
2018-08-30T14:17:50.850Z,11.80
2018-08-30T14:20:19.785Z,12.20
2018-08-30T14:22:49.193Z,12.50
2018-08-30T14:25:18.223Z,13.78
2018-08-30T14:27:47.272Z,15.70
2018-08-30T14:30:16.311Z,14.50
2018-08-30T14:32:45.391Z,13.53
2018-08-30T14:35:14.596Z,12.95
2018-08-30T14:37:43.662Z,12.25
2018-08-30T14:40:12.682Z,12.30
2018-08-30T14:42:41.759Z,12.98
2018-08-30T14:45:10.784Z,12.07
2018-08-30T14:47:39.949Z,11.43
2018-08-30T14:50:08.866Z,12.23
2018-08-30T14:52:37.922Z,12.18
2018-08-30T14:55:07.303Z,12.70
2018-08-30T14:57:36.584Z,12.28
2018-08-30T15:00:05.647Z,12.10
2018-08-30T15:02:34.594Z,12.98
2018-08-30T15:05:03.726Z,11.83
2018-08-30T15:07:32.685Z,11.25
2018-08-30T15:10:02.058Z,12.82
2018-08-30T15:12:31.203Z,12.53
2018-08-30T15:15:00.103Z,11.50
2018-08-30T15:17:29.245Z,11.97
2018-08-30T15:19:58.176Z,12.47
2018-08-30T15:22:27.228Z,11.93
2018-08-30T15:24:56.279Z,10.75
2018-08-30T15:27:25.329Z,10.75
2018-08-30T15:29:54.331Z,11.03
2018-08-30T15:32:23.422Z,10.82
2018-08-30T15:34:52.647Z,11.03
2018-08-30T15:37:21.669Z,12.10
2018-08-30T15:39:50.682Z,11.35
2018-08-30T15:42:19.790Z,11.78
2018-08-30T15:44:48.978Z,11.88
2018-08-30T15:47:18.098Z,13.70
2018-08-30T15:49:47.079Z,10.75
2018-08-30T15:52:16.158Z,10.00
2018-08-30T15:54:45.175Z,11.43
2018-08-30T15:57:14.267Z,12.60
2018-08-30T15:59:43.336Z,12.58
2018-08-30T16:02:12.371Z,13.60
2018-08-30T16:04:41.396Z,11.50
2018-08-30T16:07:10.435Z,11.30
2018-08-30T16:09:39.456Z,11.88
2018-08-30T16:12:08.522Z,11.85
2018-08-30T16:14:37.556Z,11.95
2018-08-30T16:17:06.624Z,11.00
2018-08-30T16:19:35.615Z,10.20
2018-08-30T16:22:04.635Z,11.97
2018-08-30T16:24:33.680Z,12.55
2018-08-30T16:27:02.784Z,12.03
2018-08-30T16:29:31.810Z,10.93
2018-08-30T16:32:00.971Z,10.80
2018-08-30T16:34:30.033Z,11.78
2018-08-30T16:36:59.024Z,10.65
2018-08-30T16:39:28.170Z,10.10
2018-08-30T16:41:57.255Z,8.73
2018-08-30T16:44:26.336Z,8.28
2018-08-30T16:46:55.346Z,7.03
2018-08-30T16:49:24.344Z,7.20
2018-08-30T16:51:53.387Z,7.42
2018-08-30T16:54:22.411Z,7.30
2018-08-30T16:56:52.731Z,7.40
2018-08-30T16:59:21.773Z,8.45
2018-08-30T17:01:50.776Z,8.33
2018-08-30T17:04:19.832Z,8.78
2018-08-30T17:06:48.855Z,8.28
2018-08-30T17:09:18.000Z,8.38
2018-08-30T17:11:47.019Z,7.58
2018-08-30T17:14:16.040Z,7.12
2018-08-30T17:16:45.089Z,6.90
2018-08-30T17:19:20.780Z,6.70
2018-08-30T17:21:49.824Z,6.67
2018-08-30T17:24:18.827Z,5.95
2018-08-30T17:26:48.149Z,6.22
2018-08-30T17:29:17.190Z,6.10
2018-08-30T17:31:46.325Z,5.72
2018-08-30T17:34:15.373Z,5.77
2018-08-30T17:36:44.387Z,5.62
2018-08-30T17:39:13.417Z,5.87
2018-08-30T17:41:46.789Z,6.00
2018-08-30T17:44:15.887Z,5.40
2018-08-30T17:46:44.901Z,5.67
2018-08-30T17:49:13.911Z,5.83
2018-08-30T17:51:42.987Z,5.57
2018-08-30T17:54:12.015Z,5.70
2018-08-30T17:56:41.087Z,5.50
2018-08-30T17:59:10.395Z,27.47
2018-08-30T18:01:39.484Z,43.37
2018-08-30T18:04:08.540Z,8.60
2018-08-30T18:06:44.201Z,6.17
2018-08-30T18:09:13.219Z,5.70
2018-08-30T18:11:42.308Z,5.33
2018-08-30T18:14:11.325Z,5.60
2018-08-30T18:16:40.391Z,5.93
2018-08-30T18:19:09.431Z,5.47
2018-08-30T18:21:38.458Z,5.83
2018-08-30T18:24:07.534Z,6.70
2018-08-30T18:26:36.515Z,5.37
2018-08-30T18:29:05.555Z,30.37
2018-08-30T18:31:34.585Z,27.60
2018-08-30T18:34:03.608Z,7.53
2018-08-30T18:36:32.662Z,6.60
2018-08-30T18:39:01.702Z,6.23
2018-08-30T18:41:30.735Z,5.93
2018-08-30T18:43:59.768Z,6.30
2018-08-30T18:46:28.907Z,6.37
2018-08-30T18:48:57.931Z,5.90
2018-08-30T18:51:27.041Z,6.00
2018-08-30T18:53:56.112Z,5.93
2018-08-30T18:56:25.132Z,5.40
2018-08-30T18:58:54.235Z,5.43
2018-08-30T19:01:23.504Z,6.13
2018-08-30T19:03:52.743Z,5.57
2018-08-30T19:06:21.784Z,5.30
2018-08-30T19:08:50.993Z,5.67
2018-08-30T19:11:20.039Z,5.93
2018-08-30T19:13:49.088Z,5.47
2018-08-30T19:16:23.837Z,5.73
2018-08-30T19:18:58.239Z,5.40
2018-08-30T19:21:27.587Z,5.87
2018-08-30T19:23:57.423Z,5.53
2018-08-30T19:26:26.498Z,5.23
2018-08-30T19:28:55.543Z,5.87
2018-08-30T19:31:24.927Z,5.50
2018-08-30T19:33:53.999Z,5.43
2018-08-30T19:36:28.395Z,5.93
2018-08-30T19:38:57.680Z,5.67
2018-08-30T19:41:26.707Z,5.50
2018-08-30T19:43:55.743Z,5.53
2018-08-30T19:46:24.964Z,5.73
2018-08-30T19:48:53.983Z,5.77
2018-08-30T19:51:23.110Z,5.70
2018-08-30T19:53:52.163Z,5.70
2018-08-30T19:56:21.253Z,5.20
2018-08-30T19:58:50.267Z,5.63
2018-08-30T20:01:19.302Z,5.60
2018-08-30T20:03:48.352Z,5.07
2018-08-30T20:06:17.375Z,4.87
2018-08-30T20:08:46.395Z,4.43
2018-08-30T20:11:15.583Z,4.53
2018-08-30T20:13:44.695Z,4.30
2018-08-30T20:16:13.739Z,4.40
2018-08-30T20:18:43.269Z,3.93
2018-08-30T20:21:12.352Z,4.17
2018-08-30T20:23:41.375Z,4.20
2018-08-30T20:26:10.390Z,4.00
2018-08-30T20:28:39.481Z,3.73
2018-08-30T20:31:08.479Z,3.80
2018-08-30T20:33:37.495Z,3.90
2018-08-30T20:36:06.539Z,4.00
2018-08-30T20:38:35.565Z,3.93
2018-08-30T20:41:04.894Z,3.57
2018-08-30T20:43:34.008Z,3.50
2018-08-30T20:46:03.360Z,3.10
2018-08-30T20:48:32.434Z,3.20
2018-08-30T20:51:01.427Z,3.40
2018-08-30T20:53:30.471Z,3.33
2018-08-30T20:55:59.460Z,3.23
2018-08-30T20:58:28.590Z,3.20
2018-08-30T21:00:57.595Z,2.80
2018-08-30T21:03:26.731Z,3.40
2018-08-30T21:05:55.803Z,3.20
2018-08-30T21:08:24.834Z,2.90
2018-08-30T21:10:53.871Z,3.10
2018-08-30T21:13:22.883Z,3.30
2018-08-30T21:15:51.899Z,3.17
2018-08-30T21:18:21.034Z,3.00
2018-08-30T21:20:50.102Z,2.80
2018-08-30T21:23:19.095Z,3.17
2018-08-30T21:25:48.127Z,3.17
2018-08-30T21:28:17.146Z,2.90
2018-08-30T21:30:46.195Z,3.17
2018-08-30T21:33:15.198Z,3.03
2018-08-30T21:35:44.234Z,2.90
2018-08-30T21:38:13.251Z,2.90
2018-08-30T21:40:42.304Z,3.23
2018-08-30T21:43:11.323Z,2.80
2018-08-30T21:45:40.358Z,2.87
2018-08-30T21:48:09.762Z,2.70
2018-08-30T21:50:38.776Z,2.90
2018-08-30T21:53:07.868Z,2.80
2018-08-30T21:55:36.889Z,2.87
2018-08-30T21:58:05.910Z,2.70
2018-08-30T22:00:34.983Z,2.70
2018-08-30T22:03:04.091Z,2.90
2018-08-30T22:05:33.211Z,2.60
2018-08-30T22:08:02.219Z,3.07
2018-08-30T22:10:31.292Z,2.80
2018-08-30T22:13:00.323Z,2.90
2018-08-30T22:15:29.459Z,2.80
2018-08-30T22:17:58.511Z,2.53
2018-08-30T22:20:27.530Z,2.73
2018-08-30T22:22:56.627Z,3.23
2018-08-30T22:25:25.676Z,2.50
2018-08-30T22:27:54.698Z,3.10
2018-08-30T22:30:23.754Z,3.13
2018-08-30T22:32:52.788Z,2.93
2018-08-30T22:35:21.796Z,2.90
2018-08-30T22:37:50.811Z,2.90
2018-08-30T22:40:19.866Z,2.80
2018-08-30T22:42:48.882Z,3.00
2018-08-30T22:45:17.947Z,2.83
2018-08-30T22:47:46.966Z,2.87
2018-08-30T22:50:16.033Z,2.57
2018-08-30T22:52:45.120Z,2.90
2018-08-30T22:55:14.146Z,2.70
2018-08-30T22:57:43.189Z,2.90
2018-08-30T23:00:12.207Z,2.63
2018-08-30T23:02:41.229Z,2.90
2018-08-30T23:05:10.247Z,2.70
2018-08-30T23:07:39.387Z,2.90
2018-08-30T23:10:08.435Z,3.00
2018-08-30T23:12:37.508Z,2.60
2018-08-30T23:15:06.529Z,2.80
2018-08-30T23:17:35.572Z,2.60
2018-08-30T23:20:04.765Z,2.67
2018-08-30T23:22:33.784Z,2.50
2018-08-30T23:25:02.841Z,2.77
2018-08-30T23:27:31.961Z,2.37
2018-08-30T23:30:01.420Z,2.80
2018-08-30T23:32:36.983Z,2.77
2018-08-30T23:35:06.195Z,2.70
2018-08-30T23:37:35.203Z,2.50
2018-08-30T23:40:04.785Z,2.60
2018-08-30T23:42:33.810Z,2.90
2018-08-30T23:45:02.855Z,2.60
2018-08-30T23:47:32.320Z,2.60
2018-08-30T23:50:01.328Z,2.90
2018-08-30T23:52:30.339Z,2.43
2018-08-30T23:54:59.363Z,2.60
2018-08-30T23:57:28.371Z,2.57
